LEZL Airport Information

Runway Information
Runway 09 Length 11024 ft width 148 ft
Elevation 83 ft Threshold 0 ft Heading 90
Runway 27 Length 11024 ft Width 148 ft
Elevation 111 ft Threshold 0 ft Heading 270
Airport Frequencies
Type APP Name APP Frequency 120 MHZ
Type ATIS Name ATIS Frequency 118.175 MHZ
Type GND Name GND Frequency 121.7 MHZ
Type TWR Name TWR Frequency 118.1 MHZ
Airport Navaids
Type NDB Name Sevilla Frequency 420 KHZ
Type VOR-DME Name Sevilla Frequency 113700 KHZ
Airport Weather Information & NOTAM
ADDS - METARS form results

(1228 UTC 22 January 2022)
Data provider http://aviationweather.gov/metar/data/
 
METAR text: LEZL 221200Z 06012KT CAVOK 15/04 Q1025 NOSIG
Conditions at: LEZL (SEVILLA (CIV/MIL, ES) observed 1200 UTC 22 January 2022
Temperature: 15.0°C (59°F)
Dewpoint: 4.0°C (39°F) [RH = 48%]
Pressure (altimeter): 30.27 inches Hg (1025.0 mb)
Winds: from the ENE (60 degrees) at 14 MPH (12 knots; 6.2 m/s)
Visibility: 6 or more miles (10+ km)
Ceiling: ceiling and visibility are OK
Clouds: unknown
Weather: no significant weather observed at this time

METAR text: LEZL 221130Z 06014KT 030V100 CAVOK 13/03 Q1025 NOSIG
Conditions at: LEZL (SEVILLA (CIV/MIL, ES) observed 1130 UTC 22 January 2022
Temperature: 13.0°C (55°F)
Dewpoint: 3.0°C (37°F) [RH = 51%]
Pressure (altimeter): 30.27 inches Hg (1025.0 mb)
Winds: from the ENE (60 degrees) at 16 MPH (14 knots; 7.2 m/s)
Visibility: 6 or more miles (10+ km)
Ceiling: ceiling and visibility are OK
Clouds: unknown
Weather: no significant weather observed at this time

Forecast for: LEZL (SEVILLA (CIV/MIL, ES)
Text: TAF LEZL 220800Z 2209/2309 05008KT CAVOK TX20/2215Z TN06/2307Z
Forecast period: 0900 UTC 22 January 2022 to 0900 UTC 23 January 2022
Forecast type: FROM: standard forecast or significant change
Winds: from the NE (50 degrees) at 9 MPH (8 knots; 4.1 m/s)
Visibility: 6 or more miles (10+ km)
Ceiling: unknown
Clouds: missing
Weather: no significant weather forecast for this period
Text: PROB30
Forecast period: 0900 to 1200 UTC 22 January 2022
Forecast type: TEMPORARY: The following changes expected for less than half the time period
Winds: from the E (80 degrees) at 17 MPH (15 knots; 7.7 m/s)
gusting to 29 MPH (25 knots; 12.9 m/s)
Visibility: missing
Ceiling: unknown
Clouds: missing
Weather: no significant weather forecast for this period